createdAt,value
2024-04-19T00:01:09.023Z,87.80
2024-04-19T00:04:11.209Z,88.20
2024-04-19T00:07:13.179Z,88.40
2024-04-19T00:10:15.277Z,88.60
2024-04-19T00:13:17.465Z,89.00
2024-04-19T00:16:19.388Z,89.00
2024-04-19T00:19:21.991Z,88.90
2024-04-19T00:22:23.860Z,88.70
2024-04-19T00:25:25.748Z,88.70
2024-04-19T00:28:28.555Z,88.60
2024-04-19T00:31:30.531Z,88.50
2024-04-19T00:34:32.700Z,88.70
2024-04-19T00:37:37.656Z,88.70
2024-04-19T00:40:39.614Z,88.60
2024-04-19T00:43:41.484Z,88.50
2024-04-19T00:46:43.407Z,88.30
2024-04-19T00:49:45.793Z,88.20
2024-04-19T00:52:47.772Z,87.90
2024-04-19T00:55:50.628Z,87.90
2024-04-19T00:58:53.064Z,87.80
2024-04-19T01:01:55.800Z,87.90
2024-04-19T01:04:57.711Z,87.60
2024-04-19T01:07:59.628Z,87.50
2024-04-19T01:11:02.048Z,87.40
2024-04-19T01:14:04.424Z,87.50
2024-04-19T01:17:07.532Z,87.60
2024-04-19T01:20:09.801Z,88.10
2024-04-19T01:23:13.473Z,88.30
2024-04-19T01:26:15.527Z,88.40
2024-04-19T01:29:17.373Z,88.00
2024-04-19T01:32:19.117Z,87.90
2024-04-19T01:35:20.859Z,87.80
2024-04-19T01:38:22.592Z,87.70
2024-04-19T01:41:24.335Z,87.60
2024-04-19T01:44:26.137Z,87.50
2024-04-19T01:47:28.003Z,87.40
2024-04-19T01:50:29.808Z,87.50
2024-04-19T01:53:31.672Z,87.70
2024-04-19T01:56:33.484Z,87.60
2024-04-19T01:59:35.231Z,87.60
2024-04-19T02:02:37.078Z,87.60
2024-04-19T02:05:38.932Z,87.50
2024-04-19T02:08:40.696Z,87.50
2024-04-19T02:11:42.655Z,87.40
2024-04-19T02:14:44.447Z,87.40
2024-04-19T02:17:49.954Z,87.30
2024-04-19T02:20:51.945Z,87.30
2024-04-19T02:23:53.748Z,87.10
2024-04-19T02:26:55.509Z,86.90
2024-04-19T02:30:16.185Z,86.70
2024-04-19T02:33:18.197Z,86.70
2024-04-19T02:36:20.057Z,86.80
2024-04-19T02:39:21.838Z,86.80
2024-04-19T02:42:23.663Z,87.00
2024-04-19T02:45:25.481Z,86.80
2024-04-19T02:48:27.239Z,86.50
2024-04-19T02:51:29.053Z,86.30
2024-04-19T02:54:30.917Z,86.40
2024-04-19T02:57:32.847Z,86.10
2024-04-19T03:00:34.815Z,85.90
2024-04-19T03:03:36.878Z,85.80
2024-04-19T03:06:38.738Z,85.70
2024-04-19T03:09:40.671Z,85.50
2024-04-19T03:12:42.485Z,85.40
2024-04-19T03:15:44.288Z,85.20
2024-04-19T03:18:46.160Z,84.90
2024-04-19T03:21:50.232Z,84.90
2024-04-19T03:24:52.231Z,84.90
2024-04-19T03:27:54.267Z,84.70
2024-04-19T03:30:56.075Z,84.40
2024-04-19T03:33:58.480Z,84.70
2024-04-19T03:37:00.359Z,84.60
2024-04-19T03:40:02.421Z,81.70
2024-04-19T03:43:04.395Z,80.20
2024-04-19T03:46:06.126Z,79.80
2024-04-19T03:49:07.978Z,80.60
2024-04-19T03:52:09.751Z,81.40
2024-04-19T03:55:11.549Z,80.90
2024-04-19T03:58:13.555Z,80.60
2024-04-19T04:01:15.450Z,80.30
2024-04-19T04:04:17.289Z,79.20
2024-04-19T04:07:19.145Z,78.80
2024-04-19T04:10:20.966Z,77.60
2024-04-19T04:13:22.777Z,76.30
2024-04-19T04:16:24.593Z,75.70
2024-04-19T04:19:26.452Z,75.80
2024-04-19T04:22:28.210Z,76.00
2024-04-19T04:25:29.978Z,76.00
2024-04-19T04:28:32.129Z,76.50
2024-04-19T04:31:33.917Z,76.10
2024-04-19T04:34:35.748Z,76.60
2024-04-19T04:37:40.198Z,77.30
2024-04-19T04:40:42.108Z,77.90
2024-04-19T04:43:43.843Z,78.10
2024-04-19T04:46:45.728Z,78.60
2024-04-19T04:49:47.526Z,79.20
2024-04-19T04:52:49.406Z,79.90
2024-04-19T04:55:51.190Z,81.20
2024-04-19T04:58:53.088Z,82.20
2024-04-19T05:01:54.903Z,83.60
2024-04-19T05:04:57.363Z,83.50
2024-04-19T05:08:00.005Z,85.20
2024-04-19T05:11:03.243Z,86.50
2024-04-19T05:14:05.956Z,87.40
2024-04-19T05:17:07.786Z,87.80
2024-04-19T05:20:09.743Z,88.20
2024-04-19T05:23:11.508Z,87.80
2024-04-19T05:26:13.235Z,88.40
2024-04-19T05:29:14.967Z,89.70
2024-04-19T05:32:17.063Z,90.30
2024-04-19T05:35:18.878Z,91.40
2024-04-19T05:38:20.604Z,92.00
2024-04-19T05:41:22.369Z,92.70
2024-04-19T05:44:24.149Z,93.40
2024-04-19T05:47:26.242Z,93.50
2024-04-19T05:50:31.428Z,94.00
2024-04-19T05:53:33.168Z,94.00
2024-04-19T05:56:34.895Z,93.90
2024-04-19T05:59:36.686Z,94.10
2024-04-19T06:02:38.553Z,94.20
2024-04-19T06:05:40.339Z,94.00
2024-04-19T06:08:42.202Z,94.30
2024-04-19T06:11:44.011Z,94.50
2024-04-19T06:14:45.751Z,94.80
2024-04-19T06:17:47.659Z,94.90
2024-04-19T06:20:49.932Z,95.40
2024-04-19T06:23:51.777Z,95.20
2024-04-19T06:26:53.543Z,94.80
2024-04-19T06:29:55.282Z,94.80
2024-04-19T06:32:57.093Z,94.50
2024-04-19T06:35:59.325Z,94.50
2024-04-19T06:39:08.681Z,94.80
2024-04-19T06:42:10.465Z,94.30
2024-04-19T06:45:12.222Z,94.60
2024-04-19T06:48:14.317Z,94.10
2024-04-19T06:51:16.363Z,94.20
2024-04-19T06:54:18.142Z,93.40
2024-04-19T06:57:20.333Z,93.20
2024-04-19T07:00:33.346Z,93.10
2024-04-19T07:03:43.479Z,92.30
2024-04-19T07:06:47.763Z,92.50
2024-04-19T07:09:52.448Z,92.20
2024-04-19T07:12:54.462Z,92.90
2024-04-19T07:15:56.215Z,93.20
2024-04-19T07:18:58.079Z,93.00
2024-04-19T07:21:59.892Z,92.50
2024-04-19T07:25:02.401Z,91.70
2024-04-19T07:28:04.403Z,92.00
2024-04-19T07:31:06.281Z,92.20
2024-04-19T07:34:08.001Z,91.70
2024-04-19T07:37:09.843Z,91.70
2024-04-19T07:40:11.675Z,92.00
2024-04-19T07:43:13.497Z,92.10
2024-04-19T07:46:15.326Z,91.90
2024-04-19T07:49:17.465Z,92.10
2024-04-19T07:52:19.819Z,92.20
2024-04-19T07:55:22.294Z,91.80
2024-04-19T07:58:26.277Z,91.70
2024-04-19T08:01:28.204Z,91.00
2024-04-19T08:04:30.085Z,90.40
2024-04-19T08:07:39.756Z,90.10
2024-04-19T08:10:42.446Z,90.00
2024-04-19T08:13:44.428Z,89.70
2024-04-19T08:16:46.283Z,89.70
2024-04-19T08:19:48.775Z,90.00
2024-04-19T08:22:50.576Z,89.30
2024-04-19T08:25:52.959Z,89.50
2024-04-19T08:28:55.715Z,89.70
2024-04-19T08:31:57.592Z,90.30
2024-04-19T08:35:00.073Z,90.30
2024-04-19T08:38:02.229Z,90.10
2024-04-19T08:41:05.098Z,90.50
2024-04-19T08:44:08.001Z,90.70
2024-04-19T08:47:13.680Z,90.60
2024-04-19T08:50:18.841Z,91.00
2024-04-19T08:53:21.506Z,91.30
2024-04-19T08:56:26.491Z,91.40
2024-04-19T08:59:30.969Z,91.00
2024-04-19T09:02:32.811Z,90.90
2024-04-19T09:05:36.471Z,91.60
2024-04-19T09:08:38.929Z,91.60
2024-04-19T09:11:41.989Z,91.30
2024-04-19T09:14:43.775Z,92.00
2024-04-19T09:17:47.639Z,92.30
2024-04-19T09:20:49.543Z,92.50
2024-04-19T09:23:51.276Z,92.20
2024-04-19T09:27:13.975Z,92.80
2024-04-19T09:30:17.868Z,92.30
2024-04-19T09:33:20.583Z,92.70
2024-04-19T09:36:22.743Z,92.70
2024-04-19T09:39:25.963Z,92.60
2024-04-19T09:42:28.520Z,93.00
2024-04-19T09:45:30.736Z,93.00
2024-04-19T09:48:41.560Z,93.20
2024-04-19T09:51:50.524Z,93.20
2024-04-19T09:55:13.707Z,92.90
2024-04-19T09:58:16.601Z,93.10
2024-04-19T10:01:19.869Z,93.00
2024-04-19T10:04:23.272Z,92.30
2024-04-19T10:07:26.835Z,93.10
2024-04-19T10:10:28.612Z,93.10
2024-04-19T10:13:31.846Z,93.20
2024-04-19T10:16:33.919Z,93.20
2024-04-19T10:19:45.039Z,92.60
2024-04-19T10:22:52.646Z,92.20
2024-04-19T10:25:54.413Z,91.90
2024-04-19T10:28:56.935Z,91.50
2024-04-19T10:31:58.902Z,91.70
2024-04-19T10:35:01.513Z,90.90
2024-04-19T10:38:03.313Z,91.40
2024-04-19T10:41:06.138Z,91.50
2024-04-19T10:44:17.164Z,91.00
2024-04-19T10:47:20.356Z,91.00
2024-04-19T10:50:23.223Z,91.00
2024-04-19T10:53:26.203Z,90.30
2024-04-19T10:56:28.020Z,88.90
2024-04-19T10:59:29.802Z,88.30
2024-04-19T11:02:32.246Z,87.80
2024-04-19T11:05:34.076Z,88.60
2024-04-19T11:08:35.876Z,88.60
2024-04-19T11:11:39.597Z,87.00
2024-04-19T11:14:41.548Z,86.90
2024-04-19T11:17:45.157Z,86.70
2024-04-19T11:20:53.509Z,86.70
2024-04-19T11:23:58.946Z,87.10
2024-04-19T11:27:01.191Z,87.60
2024-04-19T11:30:03.601Z,88.10
2024-04-19T11:33:10.468Z,88.70
2024-04-19T11:36:15.488Z,88.30
2024-04-19T11:39:20.308Z,88.50
2024-04-19T11:42:23.469Z,88.40
2024-04-19T11:45:25.409Z,88.70
2024-04-19T11:48:29.079Z,88.80
2024-04-19T11:51:31.888Z,88.50
2024-04-19T11:54:35.001Z,88.60
2024-04-19T11:57:36.944Z,89.00
2024-04-19T12:00:38.782Z,89.60
2024-04-19T12:03:41.371Z,89.30
2024-04-19T12:06:43.360Z,88.50
2024-04-19T12:09:45.368Z,88.60
2024-04-19T12:16:29.587Z,88.70
2024-04-19T12:19:13.761Z,88.70
2024-04-19T12:22:19.328Z,88.60
2024-04-19T12:25:23.021Z,88.80
2024-04-19T12:28:26.546Z,88.80
2024-04-19T12:31:28.638Z,89.10
2024-04-19T12:34:30.381Z,88.80
2024-04-19T12:37:32.165Z,88.90
2024-04-19T12:40:35.800Z,88.70
2024-04-19T12:43:38.091Z,88.80
2024-04-19T12:46:42.971Z,88.90
2024-04-19T12:49:45.578Z,88.70
2024-04-19T12:52:47.349Z,88.80
2024-04-19T12:55:49.239Z,88.40
2024-04-19T12:58:52.413Z,89.20
2024-04-19T13:01:54.191Z,88.70
2024-04-19T13:04:55.980Z,89.20
2024-04-19T13:07:57.766Z,89.10
2024-04-19T13:10:59.551Z,89.40
2024-04-19T13:14:01.725Z,89.90
2024-04-19T13:17:03.680Z,89.80
2024-04-19T13:20:07.089Z,90.20
2024-04-19T13:23:09.514Z,91.00
2024-04-19T13:26:11.758Z,91.30
2024-04-19T13:29:13.726Z,91.70
2024-04-19T13:32:15.748Z,92.50
2024-04-19T13:35:17.830Z,92.70
2024-04-19T13:38:19.881Z,92.90
2024-04-19T13:41:21.608Z,93.10
2024-04-19T13:44:23.422Z,93.50
2024-04-19T13:47:25.517Z,94.00
2024-04-19T13:50:27.403Z,93.70
2024-04-19T13:53:29.249Z,94.20
2024-04-19T13:56:33.825Z,94.40
2024-04-19T13:59:35.543Z,94.50
2024-04-19T14:02:37.321Z,94.60
2024-04-19T14:05:39.187Z,94.30
2024-04-19T14:08:41.009Z,94.50
2024-04-19T14:11:42.938Z,94.50
2024-04-19T14:14:44.832Z,94.90
2024-04-19T14:17:46.760Z,94.60
2024-04-19T14:20:50.865Z,94.20
2024-04-19T14:23:52.672Z,93.90
2024-04-19T14:26:54.939Z,94.30
2024-04-19T14:29:56.919Z,94.00
2024-04-19T14:32:58.778Z,94.20
2024-04-19T14:36:03.533Z,94.50
2024-04-19T14:39:05.296Z,95.50
2024-04-19T14:42:07.122Z,95.40
2024-04-19T14:45:09.291Z,95.60
2024-04-19T14:48:11.929Z,93.70
2024-04-19T14:51:18.735Z,94.00
2024-04-19T14:54:20.556Z,93.40
2024-04-19T14:57:22.674Z,93.00
2024-04-19T15:00:25.736Z,92.40
2024-04-19T15:03:27.789Z,92.90
2024-04-19T15:06:34.892Z,92.20
2024-04-19T15:09:38.506Z,92.40
2024-04-19T15:12:40.266Z,92.70
2024-04-19T15:15:42.197Z,91.80
2024-04-19T15:18:44.031Z,92.90
2024-04-19T15:21:45.883Z,88.00
2024-04-19T15:24:47.966Z,89.40
2024-04-19T15:27:50.327Z,90.90
2024-04-19T15:30:52.342Z,90.50
2024-04-19T15:33:54.109Z,90.70
2024-04-19T15:36:55.959Z,90.70
2024-04-19T15:39:57.763Z,90.40
2024-04-19T15:42:59.622Z,90.50
2024-04-19T15:46:02.900Z,90.60
2024-04-19T15:49:05.457Z,91.00
2024-04-19T15:52:07.245Z,91.90
2024-04-19T15:55:09.059Z,92.80
2024-04-19T15:58:10.942Z,93.00
2024-04-19T16:01:12.741Z,90.20
2024-04-19T16:04:15.212Z,89.30
2024-04-19T16:07:18.434Z,88.50
2024-04-19T16:10:20.216Z,88.20
2024-04-19T16:13:22.572Z,87.50
2024-04-19T16:16:24.409Z,87.50
2024-04-19T16:19:26.279Z,86.80
2024-04-19T16:22:28.116Z,87.70
2024-04-19T16:25:29.927Z,82.90
2024-04-19T16:28:32.834Z,85.60
2024-04-19T16:31:34.588Z,83.60
2024-04-19T16:34:36.387Z,82.40
2024-04-19T16:37:38.255Z,81.40
2024-04-19T16:40:40.375Z,82.30
2024-04-19T16:43:42.157Z,82.60
2024-04-19T16:46:43.991Z,83.90
2024-04-19T16:49:45.745Z,82.80
2024-04-19T16:52:47.585Z,85.30
2024-04-19T16:55:49.677Z,81.50
2024-04-19T16:58:52.061Z,73.50
2024-04-19T17:01:58.106Z,68.70
2024-04-19T17:05:09.044Z,71.10
2024-04-19T17:08:10.819Z,71.70
2024-04-19T17:11:15.595Z,67.40
2024-04-19T17:14:17.966Z,63.20
2024-04-19T17:17:19.947Z,61.30
2024-04-19T17:20:21.892Z,60.40
2024-04-19T17:23:23.761Z,59.30
2024-04-19T17:26:25.505Z,57.50
2024-04-19T17:29:27.449Z,59.70
2024-04-19T17:32:29.346Z,60.30
2024-04-19T17:35:31.214Z,61.80
2024-04-19T17:38:34.334Z,62.40
2024-04-19T17:41:36.114Z,62.10
2024-04-19T17:44:37.880Z,62.80
2024-04-19T17:47:39.870Z,62.50
2024-04-19T17:50:41.721Z,61.10
2024-04-19T17:53:44.519Z,61.20
2024-04-19T17:56:46.563Z,61.10
2024-04-19T17:59:48.423Z,63.90
2024-04-19T18:02:53.571Z,67.00
2024-04-19T18:05:56.602Z,70.30
2024-04-19T18:08:58.448Z,73.00
2024-04-19T18:12:00.261Z,74.80
2024-04-19T18:15:02.937Z,76.10
2024-04-19T18:18:05.280Z,77.70
2024-04-19T18:21:09.095Z,78.50
2024-04-19T18:24:10.951Z,79.40
2024-04-19T18:27:12.794Z,79.80
2024-04-19T18:30:17.020Z,80.60
2024-04-19T18:33:20.148Z,81.20
2024-04-19T18:36:22.107Z,81.50
2024-04-19T18:39:24.224Z,81.90
2024-04-19T18:42:26.061Z,81.60
2024-04-19T18:45:27.954Z,81.80
2024-04-19T18:48:30.110Z,82.10
2024-04-19T18:51:32.202Z,82.50
2024-04-19T18:54:33.957Z,82.70
2024-04-19T18:57:36.673Z,83.00
2024-04-19T19:00:38.536Z,83.60
2024-04-19T19:03:43.743Z,84.00
2024-04-19T19:06:45.596Z,84.50
2024-04-19T19:09:50.380Z,85.00
2024-04-19T19:12:56.752Z,85.40
2024-04-19T19:15:59.800Z,85.60
2024-04-19T19:19:02.258Z,85.90
2024-04-19T19:22:04.376Z,86.30
2024-04-19T19:25:06.677Z,86.70
2024-04-19T19:28:08.594Z,87.00
2024-04-19T19:31:10.424Z,87.30
2024-04-19T19:34:12.277Z,86.70
2024-04-19T19:37:14.019Z,85.80
2024-04-19T19:40:16.709Z,85.10
2024-04-19T19:43:21.537Z,84.90
2024-04-19T19:46:23.939Z,84.50
2024-04-19T19:49:25.713Z,84.30
2024-04-19T19:52:27.428Z,84.00
2024-04-19T19:55:29.214Z,83.90
2024-04-19T19:58:31.039Z,84.30
2024-04-19T20:01:51.617Z,84.50
2024-04-19T20:05:12.246Z,85.00
2024-04-19T20:08:14.608Z,84.50
2024-04-19T20:11:16.699Z,84.40
2024-04-19T20:14:19.121Z,84.40
2024-04-19T20:17:21.014Z,84.60
2024-04-19T20:20:22.974Z,84.70
2024-04-19T20:23:24.744Z,85.00
2024-04-19T20:26:26.675Z,84.90
2024-04-19T20:29:30.362Z,85.00
2024-04-19T20:32:33.728Z,85.40
2024-04-19T20:35:35.701Z,85.20
2024-04-19T20:38:39.643Z,84.80
2024-04-19T20:41:41.539Z,84.60
2024-04-19T20:44:44.936Z,83.90
2024-04-19T20:47:46.782Z,83.60
2024-04-19T20:50:51.312Z,83.20
2024-04-19T20:53:53.096Z,83.70
2024-04-19T20:56:54.859Z,83.00
2024-04-19T20:59:56.649Z,81.60
2024-04-19T21:02:58.440Z,81.30
2024-04-19T21:06:00.814Z,80.80
2024-04-19T21:09:05.270Z,80.60
2024-04-19T21:12:07.641Z,80.80
2024-04-19T21:15:10.463Z,81.00
2024-04-19T21:18:12.277Z,81.50
2024-04-19T21:21:14.724Z,81.20
2024-04-19T21:24:16.666Z,81.80
2024-04-19T21:27:20.925Z,82.00
2024-04-19T21:30:22.859Z,80.80
2024-04-19T21:33:24.614Z,79.70
2024-04-19T21:36:30.729Z,81.30
2024-04-19T21:39:32.753Z,82.50
2024-04-19T21:42:34.512Z,82.30
2024-04-19T21:45:39.117Z,82.90
2024-04-19T21:48:40.923Z,83.50
2024-04-19T21:51:42.909Z,83.80
2024-04-19T21:54:44.768Z,84.40
2024-04-19T21:57:46.731Z,84.50
2024-04-19T22:00:48.624Z,84.40
2024-04-19T22:03:50.454Z,84.70
2024-04-19T22:06:52.313Z,84.20
2024-04-19T22:09:55.656Z,83.80
2024-04-19T22:12:57.615Z,83.80
2024-04-19T22:16:07.112Z,83.50
2024-04-19T22:19:09.050Z,83.70
2024-04-19T22:22:13.971Z,84.20
2024-04-19T22:25:15.829Z,84.20
2024-04-19T22:28:17.650Z,84.70
2024-04-19T22:31:19.455Z,85.00
2024-04-19T22:34:21.243Z,85.30
2024-04-19T22:37:23.053Z,85.30
2024-04-19T22:40:24.856Z,85.40
2024-04-19T22:43:28.764Z,85.60
2024-04-19T22:46:32.820Z,84.90
2024-04-19T22:49:34.623Z,85.00
2024-04-19T22:52:36.387Z,85.40
2024-04-19T22:55:38.909Z,85.90
2024-04-19T22:58:40.743Z,86.40
2024-04-19T23:01:43.197Z,86.70
2024-04-19T23:04:49.175Z,87.10
2024-04-19T23:07:51.130Z,87.50
2024-04-19T23:10:55.361Z,88.10
2024-04-19T23:13:57.294Z,88.60
2024-04-19T23:17:00.534Z,88.60
2024-04-19T23:20:02.632Z,88.60
2024-04-19T23:23:04.862Z,88.40
2024-04-19T23:26:07.707Z,88.30
2024-04-19T23:29:09.534Z,88.20
2024-04-19T23:32:11.383Z,88.30
2024-04-19T23:35:14.182Z,88.50
2024-04-19T23:38:15.980Z,88.60
2024-04-19T23:41:18.581Z,88.70
2024-04-19T23:44:20.286Z,88.70
2024-04-19T23:47:22.387Z,88.70
2024-04-19T23:50:27.286Z,88.50
2024-04-19T23:53:29.059Z,88.50
2024-04-19T23:56:31.459Z,88.20
2024-04-19T23:59:33.308Z,87.80
